CheckWX is a tool to help pilots better visualize weather data.  It is not intended as a substitute for an official pre-flight weather briefing.

05:10:58 UTC

KRMY METAR
Brooks Field Airport
Marshall, Michigan, USA
Current

15 mins ago

KRMY 240456Z AUTO 13012G15KT 1 1/2SM -RA OVC003 05/05 A2948 RMK AO2 P0003 T00500050
Observed
Feb-24 @ 04:56 UTC
Wind
  • 130° at 12 KTS
  • Gusting to 15 KTS
Visibility
1 1/2 SM
Flight Rules
LIFR
Conditions
Light Rain
Cloud Levels
  • Overcast at 300' AGL
Temperature
C / 41°F
Dewpoint
C / 41°F
Humidity
100%
Altimeter
29.48" Hg
Pressure
998.32 hPa
Current Rain
0.03"
Previous

35 mins ago

KRMY 240436Z AUTO 13008G16KT 4SM BR OVC003 05/05 A2950 RMK AO2 P0003 T00460046
Observed
Feb-24 @ 04:36 UTC
Wind
  • 130° at 8 KTS
  • Gusting to 16 KTS
Visibility
4 SM
Flight Rules
LIFR
Conditions
Mist
Cloud Levels
  • Overcast at 300' AGL
Temperature
C / 41°F
Dewpoint
C / 41°F
Humidity
100%
Altimeter
29.5" Hg
Pressure
999.02 hPa
Current Rain
0.03"
Previous

56 mins ago

KRMY 240415Z AUTO 12010G16KT 4SM UP OVC003 04/04 A2951 RMK AO2 P0003 T00420042
Observed
Feb-24 @ 04:15 UTC
Wind
  • 120° at 10 KTS
  • Gusting to 16 KTS
Visibility
4 SM
Flight Rules
LIFR
Conditions
Unknown precipitation
Cloud Levels
  • Overcast at 300' AGL
Temperature
C / 39°F
Dewpoint
C / 39°F
Humidity
100%
Altimeter
29.51" Hg
Pressure
999.32 hPa
Current Rain
0.03"